Dubrovnik, Hrvatska

05:35 PM CET on Studeni 28, 2014 (GMT +0100)
Cilipi | Change Station
CLOSE
Current Station
Zračna luka
Location: Dubrovnik,
Visina: 541 ft
Nearby Weather Stations

Elev 541 ft 42.56 °N, 18.27 °E | Updated 5 minutes ago

Mostly Cloudy
Pretežno oblačno
59 °F
Feels Like 59 °F
S
14
Vjetar Varijabla smjera vjetra Vjetar from Istok

Danas
High -- | Low -- °F
--% Chance of Precip.
Jučer
High -- | Low -- °F
Precip. -- u
6:53 AM 4:15 PM
Prva četvrt, 42% visible
Pritisak 30.06 u
Vidljivost 6.2 milja
Oblaci Pretežno oblačno 5700 ft
Točka rose 55 °F
Vlažnost 88%
Kiša 0.00 u
Visina snijega Not available.
UV 0 od 12
Pollen Not available.
Kvalitet zraka Not available.
Flu Activity Not available.
METAR LDDU 281630Z 10012KT 9999 BKN057 15/13 Q1018 NOSIG

More Conditions Fewer Conditions

Pritisak 30.06 u
Vidljivost 6.2 milja
Oblaci Pretežno oblačno 5700 ft
Točka rose 55 °F
Vlažnost 88%
Kiša 0.00 u
Visina snijega Not available.
UV 0 od 12
Pollen Not available.
Kvalitet zraka Not available.
Flu Activity Not available.
METAR LDDU 281630Z 10012KT 9999 BKN057 15/13 Q1018 NOSIG

More Conditions Fewer Conditions

10-Day Weather Forecast

Almanac

Astronomija

Nov. 28, 2014 Izlazak Zalazak
Trenutno vrijeme
Civilni sumrak
Nautički sumrak
Astronomski sumrak
Moon
Duljina trajanja vidljive svjetlosti
Duljina dana
Tomorrow will be .
, % of the Moon is Illuminated

Današnji ekstremi

Country Highs Country Lows

Community

WunderPhotos

Upload Photos

1,774,232 photos uploaded!

WunderBlogs® & News

Nearby

Kvalitet zraka

  Kvalitet zraka AQ Index Zagadjenje
Not available.

Visina snijega

Station Depth Visina

Earthquake Activity

Grad Distance Mag. Time & Date
Minimum magnitude displayed is 2.5.

Coastal Water Temperatures

Mjesto Temperatura

Nearby Weather Stations